Time;durP1;ratioP1;P1;durP2;ratioP2;P2;SDS_P1;SDS_P2;PMS_P1;PMS_P2;Temp;Humidity;BMP_temperature;BMP_pressure;BME280_temperature;BME280_humidity;BME280_pressure;Samples;Min_cycle;Max_cycle;Signal;HPM_P1;HPM_P2
2021/06/07 00:02:11;;;;;;;2.00;1.30;;;;;;;13.63;66.56;97897.78;1723654;82;21514;-63
2021/06/07 00:04:38;;;;;;;1.90;1.30;;;;;;;13.62;64.99;97897.45;1697566;84;21005;-63
2021/06/07 00:07:08;;;;;;;2.75;1.30;;;;;;;13.59;64.20;97903.82;1723619;82;21497;-63
2021/06/07 00:09:37;;;;;;;2.85;1.60;;;;;;;13.58;66.98;97909.22;1697197;83;21065;-63
2021/06/07 00:12:10;;;;;;;2.08;1.60;;;;;;;13.52;65.99;97906.76;1723694;83;21045;-63
2021/06/07 00:14:38;;;;;;;1.72;1.50;;;;;;;13.48;63.92;97908.55;1693337;83;21121;-63
2021/06/07 00:17:06;;;;;;;1.57;1.17;;;;;;;13.43;66.64;97902.98;1761684;80;21125;-63
2021/06/07 00:19:37;;;;;;;2.30;1.07;;;;;;;13.38;69.13;97907.89;1761960;81;21089;-63
2021/06/07 00:22:05;;;;;;;1.52;1.17;;;;;;;13.33;67.67;97912.77;1761793;81;21091;-63
2021/06/07 00:24:32;;;;;;;1.92;1.15;;;;;;;13.28;69.55;97913.25;1766020;81;21017;-62
2021/06/07 00:26:59;;;;;;;1.47;1.25;;;;;;;13.23;70.56;97912.91;1761847;81;21021;-63
2021/06/07 00:29:27;;;;;;;1.87;1.30;;;;;;;13.20;71.14;97910.14;1761951;81;21036;-63
2021/06/07 00:31:54;;;;;;;2.40;1.22;;;;;;;13.16;70.79;97914.52;1761699;81;21078;-62
2021/06/07 00:34:21;;;;;;;2.22;1.30;;;;;;;13.14;72.18;97921.70;1761703;81;21528;-62
2021/06/07 00:36:48;;;;;;;2.20;1.40;;;;;;;13.11;73.29;97920.21;1761943;80;21135;-62
2021/06/07 00:39:16;;;;;;;2.22;1.35;;;;;;;13.07;73.75;97920.69;1761728;80;21132;-65
2021/06/07 00:41:48;;;;;;;2.92;1.85;;;;;;;13.01;73.93;97916.91;1762244;80;21411;-63
2021/06/07 00:44:19;;;;;;;1.92;1.12;;;;;;;13.01;74.89;97916.09;1761889;80;21187;-63
2021/06/07 00:46:46;;;;;;;2.20;1.10;;;;;;;13.00;74.81;97911.36;1761917;80;21052;-64
2021/06/07 00:49:13;;;;;;;1.37;1.10;;;;;;;13.01;74.49;97901.27;1761577;80;21105;-64
2021/06/07 00:51:42;;;;;;;1.75;1.37;;;;;;;13.00;74.29;97898.33;1761739;81;21501;-62
2021/06/07 00:54:10;;;;;;;1.65;1.07;;;;;;;13.01;74.49;97900.45;1761893;80;21056;-62
2021/06/07 00:56:37;;;;;;;1.40;1.27;;;;;;;13.07;72.81;97901.13;1761909;81;20946;-64
2021/06/07 00:59:05;;;;;;;1.75;1.20;;;;;;;13.06;73.97;97902.92;1761650;80;21497;-61
2021/06/07 01:01:32;;;;;;;2.60;1.05;;;;;;;13.04;74.40;97904.03;1761732;81;21525;-62
2021/06/07 01:04:01;;;;;;;2.02;1.07;;;;;;;13.07;73.56;97913.66;1761318;81;21065;-62
2021/06/07 01:06:30;;;;;;;1.72;1.10;;;;;;;13.11;73.01;97905.09;1761929;81;21458;-62
2021/06/07 01:08:58;;;;;;;1.62;1.30;;;;;;;13.15;72.80;97903.80;1761521;81;21045;-62
2021/06/07 01:11:25;;;;;;;2.00;1.60;;;;;;;13.17;71.39;97902.64;1761964;80;21072;-63
2021/06/07 01:13:53;;;;;;;3.50;1.20;;;;;;;13.21;70.84;97905.74;1761677;80;21152;-62
2021/06/07 01:16:21;;;;;;;0.95;0.70;;;;;;;13.25;70.40;97900.53;1757614;80;21002;-63
2021/06/07 01:18:49;;;;;;;2.60;1.10;;;;;;;13.27;70.24;97899.88;1756629;80;21132;-63
2021/06/07 01:21:22;;;;;;;1.37;1.10;;;;;;;13.27;71.84;97895.48;1757015;80;21048;-64
2021/06/07 01:23:51;;;;;;;1.37;1.10;;;;;;;13.28;70.94;97895.81;1756836;80;21062;-63
2021/06/07 01:26:21;;;;;;;2.00;1.27;;;;;;;13.26;71.02;97896.47;1757289;80;20990;-64
2021/06/07 01:28:49;;;;;;;2.05;1.12;;;;;;;13.26;70.22;97899.56;1757225;82;21025;-64
2021/06/07 01:31:18;;;;;;;1.67;1.07;;;;;;;13.24;71.11;97893.68;1756891;82;21033;-65
2021/06/07 01:33:50;;;;;;;1.60;0.95;;;;;;;13.21;69.65;97890.92;1756652;80;21014;-63
2021/06/07 01:36:17;;;;;;;1.37;0.80;;;;;;;13.20;70.03;97893.19;1756969;81;21053;-62
2021/06/07 01:38:46;;;;;;;3.47;1.12;;;;;;;13.17;70.38;97894.00;1757072;80;21082;-63
2021/06/07 01:41:17;;;;;;;2.10;1.37;;;;;;;13.14;71.83;97897.76;1757064;82;21021;-62
2021/06/07 01:43:46;;;;;;;1.40;1.12;;;;;;;13.11;72.21;97888.14;1757167;82;21037;-62
2021/06/07 01:46:13;;;;;;;2.42;1.52;;;;;;;13.07;71.84;97889.40;1757122;80;21022;-63
2021/06/07 01:48:39;;;;;;;1.42;1.15;;;;;;;13.06;71.41;97892.98;1756893;80;21053;-64
2021/06/07 01:51:08;;;;;;;1.90;1.10;;;;;;;13.04;70.96;97891.00;1757034;82;20986;-62
2021/06/07 01:53:36;;;;;;;1.00;0.90;;;;;;;13.02;69.84;97882.54;1757188;82;21506;-62
2021/06/07 01:56:06;;;;;;;1.52;1.00;;;;;;;13.01;69.40;97888.72;1757142;82;21094;-63
2021/06/07 01:58:34;;;;;;;1.40;1.00;;;;;;;13.00;69.00;97890.50;1757083;80;21001;-63
2021/06/07 02:01:09;;;;;;;1.50;0.98;;;;;;;13.01;69.10;97896.05;1756853;82;21026;-62
2021/06/07 02:03:36;;;;;;;2.08;1.37;;;;;;;12.98;71.02;97885.95;1756962;82;21018;-62
2021/06/07 02:06:07;;;;;;;1.62;1.25;;;;;;;12.91;73.44;97891.97;1757038;82;21001;-62
2021/06/07 02:08:34;;;;;;;2.02;1.52;;;;;;;12.77;74.47;97890.28;1757263;82;21494;-62
2021/06/07 02:11:15;;;;;;;1.00;0.80;;;;;;;12.78;73.22;97893.23;1756764;80;21093;-62
2021/06/07 02:13:49;;;;;;;6.67;1.25;;;;;;;12.77;71.80;97891.59;1757085;80;21126;-62
2021/06/07 02:16:24;;;;;;;3.83;0.82;;;;;;;12.73;71.91;97895.48;1731548;80;21136;-62
2021/06/07 02:18:51;;;;;;;1.65;1.02;;;;;;;12.70;73.35;97890.59;1720569;82;21697;-63
2021/06/07 02:21:23;;;;;;;1.87;0.98;;;;;;;12.65;72.81;97893.33;1721297;82;21080;-62
2021/06/07 02:23:51;;;;;;;3.22;1.10;;;;;;;12.62;73.25;97893.16;1721180;83;21020;-64
2021/06/07 02:26:20;;;;;;;1.45;1.00;;;;;;;12.58;72.93;97893.14;1721131;82;21005;-64
2021/06/07 02:29:00;;;;;;;2.47;0.90;;;;;;;12.51;74.72;97893.45;1721230;83;21048;-64
2021/06/07 02:31:29;;;;;;;1.57;0.95;;;;;;;12.45;74.62;97891.45;1720437;83;20994;-64
2021/06/07 02:33:58;;;;;;;0.93;0.80;;;;;;;12.41;74.84;97895.37;1721197;82;21591;-63
2021/06/07 02:36:29;;;;;;;3.65;1.05;;;;;;;12.36;75.32;97896.31;1721387;82;21020;-64
2021/06/07 02:38:56;;;;;;;2.10;1.10;;;;;;;12.30;75.47;97890.41;1721206;83;21028;-66
2021/06/07 02:41:24;;;;;;;2.37;1.27;;;;;;;12.22;76.29;97887.75;1721209;82;21040;-64
2021/06/07 02:43:51;;;;;;;1.55;1.10;;;;;;;12.20;76.06;97893.13;1721246;83;21426;-64
2021/06/07 02:46:20;;;;;;;2.65;1.45;;;;;;;12.20;76.20;97904.03;1721159;82;21013;-63
2021/06/07 02:48:47;;;;;;;3.58;1.60;;;;;;;12.15;74.73;97901.88;1721101;83;21083;-64
2021/06/07 02:51:15;;;;;;;2.02;1.20;;;;;;;12.16;75.22;97897.02;1721295;83;21441;-64
2021/06/07 02:53:42;;;;;;;1.30;0.93;;;;;;;12.14;76.28;97900.75;1721025;82;21037;-64
2021/06/07 02:56:10;;;;;;;2.45;1.25;;;;;;;12.17;75.23;97893.93;1721035;83;21596;-64
2021/06/07 02:58:37;;;;;;;1.42;1.20;;;;;;;12.18;75.35;97894.23;1721117;82;21036;-63
2021/06/07 03:01:08;;;;;;;1.85;1.00;;;;;;;12.19;75.84;97898.00;1721223;82;21064;-63
2021/06/07 03:03:36;;;;;;;1.42;1.25;;;;;;;12.18;75.79;97898.96;1720713;83;21624;-64
2021/06/07 03:06:04;;;;;;;1.37;1.07;;;;;;;12.19;75.52;97904.51;1721248;82;21123;-64
2021/06/07 03:08:34;;;;;;;2.15;1.22;;;;;;;12.22;73.77;97900.77;1721257;83;21513;-64
2021/06/07 03:11:08;;;;;;;1.85;1.05;;;;;;;12.24;73.66;97905.36;1721181;82;21115;-63
2021/06/07 03:13:36;;;;;;;1.30;1.10;;;;;;;12.25;73.36;97905.21;1720814;83;21156;-63
2021/06/07 03:16:04;;;;;;;1.72;1.00;;;;;;;12.27;72.24;97901.14;1721071;81;21461;-64
2021/06/07 03:18:31;;;;;;;4.03;1.50;;;;;;;12.27;72.39;97902.44;1720875;82;21125;-63
2021/06/07 03:20:58;;;;;;;5.12;1.50;;;;;;;12.24;73.24;97898.37;1721365;82;21505;-64
2021/06/07 03:23:33;;;;;;;1.67;1.37;;;;;;;12.25;73.40;97903.91;1721123;82;21044;-64
2021/06/07 03:26:00;;;;;;;1.67;1.12;;;;;;;12.26;71.76;97899.49;1720961;83;21048;-64
2021/06/07 03:28:28;;;;;;;1.00;0.80;;;;;;;12.26;71.40;97905.52;1721485;82;21611;-64
2021/06/07 03:30:56;;;;;;;2.17;1.15;;;;;;;12.27;71.33;97912.37;1721663;83;21402;-64
2021/06/07 03:33:23;;;;;;;2.00;1.25;;;;;;;12.30;72.29;97911.23;1721134;83;21024;-66
2021/06/07 03:35:55;;;;;;;4.08;1.20;;;;;;;12.30;73.41;97908.14;1721064;83;21125;-64
2021/06/07 03:38:24;;;;;;;1.57;1.07;;;;;;;12.29;73.77;97905.72;1721195;83;21008;-64
2021/06/07 03:40:54;;;;;;;2.15;0.82;;;;;;;12.33;71.29;97913.04;1721136;83;21048;-64
2021/06/07 03:43:25;;;;;;;1.98;1.30;;;;;;;12.38;71.15;97913.40;1721332;82;21079;-64
2021/06/07 03:45:52;;;;;;;1.45;0.93;;;;;;;12.44;72.37;97921.58;1720704;82;21024;-64
2021/06/07 03:48:19;;;;;;;1.42;1.20;;;;;;;12.46;72.86;97922.22;1721209;83;21147;-64
2021/06/07 03:50:46;;;;;;;1.87;1.37;;;;;;;12.51;72.73;97921.28;1720785;83;21093;-64
2021/06/07 03:53:14;;;;;;;1.35;1.10;;;;;;;12.55;73.45;97915.61;1720843;83;21047;-64
2021/06/07 03:55:42;;;;;;;2.27;1.40;;;;;;;12.58;72.18;97915.77;1721071;82;21604;-64
2021/06/07 03:58:09;;;;;;;0.98;0.85;;;;;;;12.63;73.49;97912.22;1720965;83;21051;-63
2021/06/07 04:00:38;;;;;;;2.12;1.42;;;;;;;12.68;73.23;97909.97;1721236;82;21043;-64
2021/06/07 04:03:08;;;;;;;1.90;1.10;;;;;;;12.74;72.05;97915.36;1720802;82;21074;-64
2021/06/07 04:05:36;;;;;;;1.67;1.07;;;;;;;12.82;71.35;97918.48;1721191;83;21039;-63
2021/06/07 04:08:06;;;;;;;1.50;0.95;;;;;;;12.87;70.58;97924.05;1720432;82;20988;-64
2021/06/07 04:10:34;;;;;;;1.50;1.17;;;;;;;12.93;70.71;97926.01;1720894;83;21242;-63
2021/06/07 04:13:01;;;;;;;2.08;1.15;;;;;;;13.01;71.00;97926.52;1720809;83;21050;-63
2021/06/07 04:15:29;;;;;;;1.70;1.50;;;;;;;13.03;71.66;97924.58;1728364;79;21035;-63
2021/06/07 04:17:57;;;;;;;1.42;1.02;;;;;;;13.11;70.30;97924.64;1711613;84;21089;-64
2021/06/07 04:20:28;;;;;;;2.87;0.93;;;;;;;13.19;71.49;97929.88;1779490;80;21118;-63
2021/06/07 04:22:56;;;;;;;1.80;1.10;;;;;;;13.24;71.82;97923.19;1779045;80;21023;-63
2021/06/07 04:25:24;;;;;;;2.00;1.22;;;;;;;13.32;71.59;97926.30;1760370;80;21096;-64
2021/06/07 04:27:53;;;;;;;5.03;1.50;;;;;;;13.40;72.25;97926.80;1753749;81;21498;-65
2021/06/07 04:30:23;;;;;;;1.95;1.02;;;;;;;13.48;71.58;97927.63;1760249;81;21017;-64
2021/06/07 04:32:53;;;;;;;1.85;1.30;;;;;;;13.60;71.83;97923.72;1760191;81;21020;-66
2021/06/07 04:35:21;;;;;;;30.92;14.80;;;;;;;13.73;71.33;97926.64;1760327;81;21041;-65
2021/06/07 04:37:51;;;;;;;7.97;4.05;;;;;;;13.83;70.27;97922.58;1772620;80;21065;-72
2021/06/07 04:40:22;;;;;;;4.75;1.82;;;;;;;13.91;69.93;97934.81;1777734;80;21088;-65
2021/06/07 04:42:50;;;;;;;2.27;1.82;;;;;;;14.03;70.12;97934.32;1775788;79;21475;-65
2021/06/07 04:45:18;;;;;;;4.92;1.52;;;;;;;14.11;69.65;97926.48;1781751;80;21552;-64
2021/06/07 04:47:46;;;;;;;1.32;1.22;;;;;;;14.24;69.51;97923.33;1783884;80;20988;-62
2021/06/07 04:50:16;;;;;;;5.95;1.20;;;;;;;14.40;69.06;97935.58;1783581;80;21158;-64
2021/06/07 04:53:02;;;;;;;3.12;1.10;;;;;;;14.46;68.11;97929.70;1780471;80;20992;-65
2021/06/07 04:55:48;;;;;;;1.65;1.07;;;;;;;14.52;68.13;97932.44;1774536;80;21164;-65
2021/06/07 04:58:19;;;;;;;1.60;1.40;;;;;;;14.68;67.68;97938.92;1779829;80;20977;-68
2021/06/07 05:00:51;;;;;;;1.70;1.10;;;;;;;14.87;67.75;97935.58;1774708;80;21014;-66
2021/06/07 05:03:19;;;;;;;1.72;1.02;;;;;;;15.06;67.33;97937.28;1784382;79;20992;-65
2021/06/07 05:05:47;;;;;;;2.52;1.37;;;;;;;15.24;66.92;97935.73;1760085;80;21121;-65
2021/06/07 05:08:14;;;;;;;3.37;1.40;;;;;;;15.40;66.10;97929.09;1760394;81;21017;-65
2021/06/07 05:10:41;;;;;;;1.95;1.12;;;;;;;15.55;65.30;97924.77;1716474;84;21061;-65
2021/06/07 05:13:10;;;;;;;1.40;1.10;;;;;;;15.74;64.85;97920.03;1760116;81;21510;-66
2021/06/07 05:15:39;;;;;;;1.17;0.90;;;;;;;15.89;63.53;97921.70;1760327;81;21112;-65
2021/06/07 05:18:07;;;;;;;1.85;1.10;;;;;;;16.04;63.44;97923.05;1760185;81;21602;-67
2021/06/07 05:20:35;;;;;;;1.65;1.10;;;;;;;16.19;63.07;97927.80;1760405;81;21018;-67
2021/06/07 05:23:04;;;;;;;1.57;1.10;;;;;;;16.33;62.61;97928.83;1760536;81;21072;-66
2021/06/07 05:25:34;;;;;;;7.45;4.08;;;;;;;16.43;62.36;97930.19;1760373;81;21041;-67
2021/06/07 05:28:04;;;;;;;24.25;9.15;;;;;;;16.51;62.22;97930.10;1764206;80;20952;-64
2021/06/07 05:30:32;;;;;;;38.75;19.15;;;;;;;16.59;61.83;97928.73;1762186;80;21056;-66
2021/06/07 05:32:59;;;;;;;12.47;6.22;;;;;;;16.60;61.25;97928.23;1754228;82;20985;-65
2021/06/07 05:35:32;;;;;;;5.95;2.60;;;;;;;16.63;61.17;97923.94;1751536;82;21010;-64
2021/06/07 05:37:59;;;;;;;2.30;1.70;;;;;;;16.66;61.28;97927.99;1754667;82;20989;-66
2021/06/07 05:40:29;;;;;;;2.52;1.62;;;;;;;16.73;61.63;97924.98;1751392;81;21540;-64
2021/06/07 05:42:56;;;;;;;2.42;1.72;;;;;;;16.86;61.92;97922.02;1754043;82;21072;-66
2021/06/07 05:45:23;;;;;;;1.95;1.37;;;;;;;17.04;61.86;97928.20;1754855;80;21489;-64
2021/06/07 05:47:50;;;;;;;2.30;1.60;;;;;;;17.18;61.70;97926.03;1783990;80;20949;-64
2021/06/07 05:50:21;;;;;;;1.80;1.60;;;;;;;17.34;61.39;97932.38;1785326;79;21063;-64
2021/06/07 05:52:50;;;;;;;3.62;1.60;;;;;;;17.48;61.10;97935.44;1763666;80;21070;-67
2021/06/07 05:55:37;;;;;;;1.60;1.50;;;;;;;17.61;60.62;97934.79;1725800;81;21097;-65
2021/06/07 05:58:12;;;;;;;2.52;1.12;;;;;;;17.74;60.07;97931.48;1752883;80;21100;-64
2021/06/07 06:00:42;;;;;;;2.00;1.47;;;;;;;17.86;59.39;97927.31;1725090;80;21667;-64
2021/06/07 06:03:09;;;;;;;3.37;1.87;;;;;;;17.94;58.51;97928.50;1759005;80;21526;-65
2021/06/07 06:05:39;;;;;;;3.33;1.57;;;;;;;17.96;57.82;97927.83;1756674;80;21113;-64
2021/06/07 06:08:08;;;;;;;2.15;1.52;;;;;;;18.07;58.54;97929.93;1757703;80;21007;-64
2021/06/07 06:10:37;;;;;;;1.92;1.62;;;;;;;18.22;57.28;97933.27;1757867;81;20996;-64
2021/06/07 06:13:06;;;;;;;9.80;1.75;;;;;;;18.37;58.18;97935.30;1732844;81;21079;-64
2021/06/07 06:15:34;;;;;;;5.12;1.37;;;;;;;18.54;57.55;97934.53;1735299;81;21141;-64
2021/06/07 06:18:03;;;;;;;1.52;1.15;;;;;;;18.67;56.59;97935.11;1751845;80;21049;-63
2021/06/07 06:20:33;;;;;;;2.62;1.65;;;;;;;18.77;56.50;97930.30;1753402;80;21105;-64
2021/06/07 06:23:00;;;;;;;2.33;1.42;;;;;;;18.92;56.97;97938.37;1753927;80;21184;-65
2021/06/07 06:25:28;;;;;;;1.85;1.10;;;;;;;19.06;56.30;97938.43;1751658;81;21397;-64
2021/06/07 06:27:57;;;;;;;3.30;1.45;;;;;;;19.15;55.45;97941.17;1753712;81;21115;-64
2021/06/07 06:30:28;;;;;;;2.42;1.32;;;;;;;19.24;55.46;97933.42;1754094;80;21104;-67
2021/06/07 06:33:00;;;;;;;2.77;1.40;;;;;;;19.34;55.30;97935.98;1752410;80;21093;-64
2021/06/07 06:35:29;;;;;;;2.50;1.62;;;;;;;19.48;55.30;97940.81;1748184;80;21056;-64
2021/06/07 06:37:58;;;;;;;4.25;1.75;;;;;;;19.54;53.10;97933.92;1753587;80;21270;-64
2021/06/07 06:40:29;;;;;;;2.30;1.62;;;;;;;19.67;53.22;97933.95;1752186;82;21057;-67
2021/06/07 06:42:58;;;;;;;2.52;1.40;;;;;;;19.77;53.04;97933.86;1752190;80;21076;-64
2021/06/07 06:45:27;;;;;;;4.08;1.62;;;;;;;19.93;53.12;97938.42;1743888;81;21025;-64
2021/06/07 06:47:58;;;;;;;2.35;1.22;;;;;;;19.95;53.12;97941.69;1752415;80;21549;-65
2021/06/07 06:50:33;;;;;;;1.85;1.60;;;;;;;20.14;52.19;97934.28;1750049;80;21550;-64
2021/06/07 06:52:58;;;;;;;4.35;1.70;;;;;;;20.23;51.10;97933.07;1754673;80;21085;-64
2021/06/07 06:55:25;;;;;;;2.52;1.55;;;;;;;20.33;50.98;97930.84;1752019;81;21017;-64
2021/06/07 06:57:52;;;;;;;3.02;1.32;;;;;;;20.49;52.30;97925.14;1753161;82;21096;-64
2021/06/07 07:00:21;;;;;;;1.92;1.50;;;;;;;20.62;51.20;97929.05;1752989;81;21037;-64
2021/06/07 07:02:49;;;;;;;3.52;2.05;;;;;;;20.63;50.64;97929.36;1753202;82;21037;-64
2021/06/07 07:05:16;;;;;;;2.55;1.75;;;;;;;20.63;50.29;97927.23;1754575;82;21066;-63
2021/06/07 07:07:43;;;;;;;2.80;1.87;;;;;;;20.52;51.00;97924.72;1757292;82;21033;-64
2021/06/07 07:10:12;;;;;;;4.95;1.98;;;;;;;20.65;51.04;97925.20;1755717;82;21049;-64
2021/06/07 07:12:38;;;;;;;2.75;1.40;;;;;;;20.86;50.95;97926.23;1753132;82;21077;-64
2021/06/07 07:15:07;;;;;;;3.33;1.40;;;;;;;21.04;50.34;97930.36;1757187;82;21068;-64
2021/06/07 07:17:34;;;;;;;4.90;1.72;;;;;;;21.21;50.35;97929.38;1768584;79;21034;-64
2021/06/07 07:20:00;;;;;;;6.03;2.72;;;;;;;21.08;51.16;97922.31;1719826;83;21009;-65
2021/06/07 07:22:27;;;;;;;3.67;1.60;;;;;;;20.93;51.05;97926.23;1731552;82;21020;-65
2021/06/07 07:24:54;;;;;;;4.60;2.58;;;;;;;21.15;50.82;97921.80;1735747;82;21111;-65
2021/06/07 07:27:21;;;;;;;7.22;2.52;;;;;;;21.23;50.57;97926.03;1730471;82;21369;-66
2021/06/07 07:29:49;;;;;;;2.60;1.90;;;;;;;21.29;50.04;97924.66;1723808;83;21580;-65
2021/06/07 07:32:16;;;;;;;4.00;1.77;;;;;;;21.48;50.08;97926.89;1724535;83;21137;-66
2021/06/07 07:34:44;;;;;;;3.55;1.95;;;;;;;21.59;50.33;97931.52;1728007;82;21482;-65
2021/06/07 07:37:11;;;;;;;3.20;1.90;;;;;;;21.51;49.51;97924.35;1731441;81;20958;-66
2021/06/07 07:39:39;;;;;;;2.42;1.30;;;;;;;21.65;49.68;97924.55;1740674;81;21107;-65
2021/06/07 07:42:07;;;;;;;3.33;1.70;;;;;;;21.70;49.22;97927.37;1740635;82;21035;-65
2021/06/07 07:44:36;;;;;;;2.67;1.60;;;;;;;21.53;49.37;97924.94;1740826;81;21059;-65
2021/06/07 07:47:06;;;;;;;2.47;1.60;;;;;;;21.80;49.72;97927.70;1729394;82;21039;-67
2021/06/07 07:49:34;;;;;;;3.20;1.75;;;;;;;22.02;49.06;97922.36;1724376;83;21028;-65
2021/06/07 07:52:04;;;;;;;4.00;1.85;;;;;;;22.10;48.94;97924.73;1724455;83;21076;-65
2021/06/07 07:54:33;;;;;;;2.42;1.80;;;;;;;22.00;49.05;97921.78;1724334;83;21577;-64
2021/06/07 07:57:01;;;;;;;2.58;1.87;;;;;;;21.94;48.70;97921.84;1724250;82;21048;-65
2021/06/07 07:59:28;;;;;;;3.25;1.40;;;;;;;22.26;48.58;97920.73;1740553;82;21028;-65
2021/06/07 08:01:55;;;;;;;4.55;1.22;;;;;;;22.46;48.24;97931.12;1733064;82;21040;-66
2021/06/07 08:04:22;;;;;;;2.42;1.52;;;;;;;22.66;47.18;97929.09;1724054;82;21001;-65
2021/06/07 08:06:49;;;;;;;4.17;1.62;;;;;;;22.86;46.92;97924.42;1724317;83;21690;-66
2021/06/07 08:09:16;;;;;;;38.38;20.97;;;;;;;22.97;44.64;97923.67;1724200;83;21037;-67
2021/06/07 08:11:43;;;;;;;29.25;17.57;;;;;;;23.18;45.68;97925.87;1726339;82;21005;-66
2021/06/07 08:14:10;;;;;;;2.67;1.77;;;;;;;23.26;44.13;97919.96;1737775;82;21052;-66
2021/06/07 08:16:37;;;;;;;1.80;1.25;;;;;;;23.07;42.22;97918.65;1729390;81;21516;-66
2021/06/07 08:19:04;;;;;;;1.77;1.42;;;;;;;23.25;42.40;97913.85;1722272;83;21013;-66
2021/06/07 08:21:32;;;;;;;2.35;1.55;;;;;;;23.38;42.80;97911.55;1722205;83;21077;-65
2021/06/07 08:23:59;;;;;;;3.10;1.72;;;;;;;23.52;43.13;97915.64;1722420;83;21085;-66
2021/06/07 08:26:27;;;;;;;1.98;1.37;;;;;;;23.61;42.61;97905.83;1721896;83;22475;-66
2021/06/07 08:28:55;;;;;;;2.20;1.60;;;;;;;23.80;42.59;97915.03;1722237;83;21109;-66
2021/06/07 08:31:22;;;;;;;2.37;1.12;;;;;;;23.96;43.34;97911.20;1722304;82;21223;-66
2021/06/07 08:33:50;;;;;;;1.42;1.12;;;;;;;24.16;42.37;97911.41;1722657;82;21032;-66
2021/06/07 08:36:16;;;;;;;4.70;1.25;;;;;;;24.16;42.40;97911.41;1722456;83;21131;-66
2021/06/07 08:38:43;;;;;;;1.90;1.50;;;;;;;24.30;42.23;97907.48;1721858;83;21564;-66
2021/06/07 08:41:11;;;;;;;4.20;1.37;;;;;;;24.40;41.61;97909.84;1721857;82;21894;-66
2021/06/07 08:43:38;;;;;;;3.58;3.00;;;;;;;24.50;41.93;97903.95;1722488;83;21044;-66
2021/06/07 08:46:05;;;;;;;2.95;2.27;;;;;;;24.28;40.78;97904.27;1722621;83;21065;-67
2021/06/07 08:48:32;;;;;;;2.35;1.70;;;;;;;24.39;40.85;97910.90;1722503;83;21033;-66
2021/06/07 08:51:01;;;;;;;3.27;1.60;;;;;;;24.54;41.19;97907.77;1722502;82;21133;-66
2021/06/07 08:53:28;;;;;;;2.15;1.40;;;;;;;24.75;41.50;97903.67;1722386;83;21061;-66
2021/06/07 08:55:56;;;;;;;1.65;1.50;;;;;;;24.79;40.90;97903.48;1722476;82;21044;-66
2021/06/07 08:58:42;;;;;;;1.62;1.00;;;;;;;24.76;41.54;97906.10;1722268;83;21209;-66
2021/06/07 09:01:10;;;;;;;2.12;1.27;;;;;;;24.94;40.86;97898.00;1678405;84;21086;-65
2021/06/07 09:03:37;;;;;;;8.63;1.27;;;;;;;24.91;40.51;97898.98;1728487;82;21073;-67
2021/06/07 09:06:05;;;;;;;1.85;1.30;;;;;;;24.84;40.40;97899.13;1749522;82;21049;-67
2021/06/07 09:08:39;;;;;;;1.98;1.20;;;;;;;24.80;40.63;97899.28;1749707;81;21164;-67
2021/06/07 09:11:18;;;;;;;1.10;0.80;;;;;;;24.73;39.17;97899.94;1750091;82;21084;-66
2021/06/07 09:13:45;;;;;;;0.70;0.70;;;;;;;24.59;36.04;97894.58;1733013;81;21117;-67
2021/06/07 09:16:13;;;;;;;1.42;0.90;;;;;;;24.51;37.74;97901.05;1724622;83;21034;-65
2021/06/07 09:18:45;;;;;;;1.42;1.00;;;;;;;24.47;38.42;97897.25;1724605;83;21244;-67
2021/06/07 09:21:18;;;;;;;1.05;0.95;;;;;;;24.44;38.23;97892.41;1724850;81;21027;-67
2021/06/07 09:23:55;;;;;;;1.30;1.00;;;;;;;24.39;37.42;97888.86;1724445;82;21110;-66
2021/06/07 09:26:30;;;;;;;3.10;1.12;;;;;;;24.27;36.07;97885.39;1723496;83;21031;-67
2021/06/07 09:29:00;;;;;;;1.95;1.42;;;;;;;24.12;35.67;97876.01;1724551;81;21051;-67
2021/06/07 09:31:33;;;;;;;1.65;1.25;;;;;;;24.49;35.92;97885.08;1724766;83;21476;-66
2021/06/07 09:34:07;;;;;;;1.15;1.05;;;;;;;24.87;34.25;97879.25;1724485;82;21039;-66
2021/06/07 09:36:34;;;;;;;3.67;1.17;;;;;;;25.21;32.82;97869.56;1724397;82;21499;-65
2021/06/07 09:39:20;;;;;;;1.22;0.82;;;;;;;25.17;32.48;97851.95;1728109;82;21030;-65
2021/06/07 09:42:01;;;;;;;2.47;1.12;;;;;;;25.61;35.04;97875.59;1749336;82;21012;-65
2021/06/07 09:44:35;;;;;;;1.17;1.02;;;;;;;25.97;32.29;97871.14;1748774;82;21110;-66
2021/06/07 09:47:13;;;;;;;1.10;1.00;;;;;;;26.39;33.17;97876.02;1749482;82;21001;-66
2021/06/07 09:49:53;;;;;;;1.85;1.40;;;;;;;26.85;30.81;97868.92;1749842;82;20978;-65
2021/06/07 09:52:31;;;;;;;1.35;1.10;;;;;;;27.27;29.52;97863.80;1749447;82;20999;-65
2021/06/07 09:55:18;;;;;;;2.87;0.80;;;;;;;27.52;29.11;97862.44;1749565;82;21037;-66
2021/06/07 09:57:55;;;;;;;1.37;0.98;;;;;;;28.27;32.23;97856.89;1750424;82;21154;-66
2021/06/07 10:00:43;;;;;;;0.85;0.72;;;;;;;28.57;27.00;97863.73;1750104;82;21042;-65
2021/06/07 10:06:26;;;;;;;0.90;0.57;;;;;;;29.47;28.41;97856.29;1651401;87;21531;-67
2021/06/07 10:08:58;;;;;;;1.15;0.88;;;;;;;30.03;30.70;97859.80;1651325;86;21090;-67
2021/06/07 10:11:45;;;;;;;2.60;0.80;;;;;;;30.27;27.13;97847.97;1651369;87;21107;-65
2021/06/07 10:14:20;;;;;;;1.65;0.90;;;;;;;30.30;25.83;97846.89;1630804;87;21282;-66
2021/06/07 10:17:01;;;;;;;0.90;0.85;;;;;;;30.57;27.60;97849.25;1651385;87;21105;-67
2021/06/07 10:19:41;;;;;;;3.90;0.82;;;;;;;30.72;25.32;97845.16;1651126;87;21066;-66
2021/06/07 10:22:05;;;;;;;0.70;0.60;;;;;;;30.51;24.46;97846.30;1650493;87;21026;-66
2021/06/07 10:24:32;;;;;;;1.00;0.70;;;;;;;30.48;25.15;97846.86;1650988;87;21011;-65
2021/06/07 10:27:00;;;;;;;0.60;0.60;;;;;;;30.39;26.43;97839.11;1651161;87;21030;-66
2021/06/07 10:29:40;;;;;;;0.60;0.60;;;;;;;30.51;27.00;97841.75;1651391;87;21125;-65
2021/06/07 10:32:14;;;;;;;1.00;0.80;;;;;;;30.85;26.88;97840.55;1651416;87;21598;-67
2021/06/07 10:34:49;;;;;;;1.00;0.88;;;;;;;31.20;26.95;97843.61;1651446;87;21043;-67
2021/06/07 10:37:16;;;;;;;;;;;;;;;31.75;28.63;97841.62;1653760;87;21090;-65
2021/06/07 10:39:44;;;;;;;0.90;0.78;;;;;;;31.81;25.79;97843.97;1651376;87;20119;-67
2021/06/07 10:42:16;;;;;;;0.80;0.80;;;;;;;31.39;26.66;97843.74;1651126;87;21201;-66
2021/06/07 10:44:48;;;;;;;2.05;0.70;;;;;;;31.00;24.23;97832.99;1651099;87;21072;-66
2021/06/07 10:47:20;;;;;;;1.42;0.82;;;;;;;31.31;24.55;97830.92;1650633;86;21173;-67
2021/06/07 10:49:58;;;;;;;1.45;1.07;;;;;;;31.80;24.01;97828.13;1651240;87;21537;-68
2021/06/07 10:52:30;;;;;;;1.57;0.85;;;;;;;32.15;22.98;97819.76;1651029;87;21094;-66
2021/06/07 10:55:08;;;;;;;0.95;0.75;;;;;;;32.72;22.70;97818.87;1651096;87;21097;-67
2021/06/07 10:57:48;;;;;;;0.82;0.78;;;;;;;33.14;22.96;97815.89;1651430;87;21070;-66
2021/06/07 11:00:39;;;;;;;0.75;0.75;;;;;;;33.22;22.45;97813.89;1651069;87;21050;-68
2021/06/07 11:03:20;;;;;;;1.47;0.62;;;;;;;32.84;21.85;97809.03;1651345;87;21094;-67
2021/06/07 11:05:53;;;;;;;1.37;0.80;;;;;;;32.64;23.46;97811.44;1620666;87;21038;-67
2021/06/07 11:08:28;;;;;;;1.15;1.00;;;;;;;31.16;23.81;97809.02;1637655;87;21114;-64
2021/06/07 11:11:13;;;;;;;1.12;0.80;;;;;;;31.16;23.81;97809.02;1637754;87;21081;-67
2021/06/07 11:13:54;;;;;;;0.78;0.70;;;;;;;30.94;24.54;97803.22;1637905;88;21062;-67
2021/06/07 11:16:34;;;;;;;2.00;0.80;;;;;;;30.97;24.41;97805.36;1636687;85;21050;-66
2021/06/07 11:19:10;;;;;;;1.60;0.88;;;;;;;31.12;24.25;97803.16;1637908;86;21046;-66
2021/06/07 11:21:43;;;;;;;0.72;0.65;;;;;;;30.99;23.92;97800.55;1637519;88;21046;-66
2021/06/07 11:24:35;;;;;;;0.98;0.78;;;;;;;30.73;24.26;97797.72;1618190;87;21030;-67
2021/06/07 11:27:05;;;;;;;1.87;1.70;;;;;;;30.68;24.52;97797.73;1638011;86;21065;-66
2021/06/07 11:29:33;;;;;;;1.40;0.95;;;;;;;29.12;26.15;97785.61;1639161;87;21493;-65
2021/06/07 11:32:10;;;;;;;1.60;0.90;;;;;;;29.36;26.06;97787.80;1638031;87;21045;-65
2021/06/07 11:34:49;;;;;;;0.70;0.70;;;;;;;29.92;25.41;97781.34;1637695;87;21029;-65
2021/06/07 11:37:32;;;;;;;1.02;0.78;;;;;;;30.99;25.46;97783.11;1637721;87;21041;-68
2021/06/07 11:40:00;;;;;;;0.93;0.82;;;;;;;31.76;25.23;97785.47;1636419;86;21002;-66
2021/06/07 11:42:30;;;;;;;3.17;1.20;;;;;;;31.60;23.18;97779.44;1637865;88;21648;-65
2021/06/07 11:45:02;;;;;;;0.88;0.80;;;;;;;31.66;23.44;97763.56;1636481;86;21057;-68
2021/06/07 11:47:48;;;;;;;1.35;0.80;;;;;;;31.66;23.44;97763.56;1637758;88;21118;-68
2021/06/07 11:50:19;;;;;;;1.37;0.90;;;;;;;32.41;23.40;97763.28;1637233;87;21014;-68
2021/06/07 11:52:54;;;;;;;3.00;0.68;;;;;;;33.13;22.70;97772.03;1638256;86;21127;-67